Time;durP1;ratioP1;P1;durP2;ratioP2;P2;SDS_P1;SDS_P2;PMS_P1;PMS_P2;Temp;Humidity;BMP_temperature;BMP_pressure;BME280_temperature;BME280_humidity;BME280_pressure;Samples;Min_cycle;Max_cycle;Signal;HPM_P1;HPM_P2
2022/04/14 00:00:32;;;;;;;18.20;4.60;;;3.70;99.90;;;;;;4994059;28;20062;-75
2022/04/14 00:03:00;;;;;;;9.30;4.18;;;3.60;99.90;;;;;;5011572;28;20563;-75
2022/04/14 00:05:28;;;;;;;13.90;4.93;;;3.70;99.90;;;;;;4994631;28;20413;-75
2022/04/14 00:07:56;;;;;;;16.05;4.97;;;3.60;99.90;;;;;;5011047;28;20124;-75
2022/04/14 00:10:23;;;;;;;22.65;5.25;;;3.70;99.90;;;;;;5002492;28;20064;-75
2022/04/14 00:12:51;;;;;;;10.98;4.22;;;3.70;99.90;;;;;;5007047;28;20510;-76
2022/04/14 00:15:18;;;;;;;28.25;4.78;;;3.70;99.90;;;;;;5011817;28;20137;-75
2022/04/14 00:17:45;;;;;;;18.92;4.85;;;3.80;99.90;;;;;;5010390;28;20048;-75
2022/04/14 00:20:14;;;;;;;17.13;4.15;;;3.70;99.90;;;;;;5007359;28;20054;-75
2022/04/14 00:22:42;;;;;;;27.75;6.35;;;3.70;99.90;;;;;;5010418;28;20041;-75
2022/04/14 00:25:11;;;;;;;43.28;7.60;;;3.70;99.90;;;;;;5011915;28;20109;-75
2022/04/14 00:27:39;;;;;;;43.35;7.55;;;3.70;99.90;;;;;;5011427;28;20046;-75
2022/04/14 00:30:08;;;;;;;47.60;7.25;;;3.70;99.90;;;;;;5010237;28;20457;-75
2022/04/14 00:32:35;;;;;;;39.30;8.77;;;3.70;99.90;;;;;;5007849;28;20097;-75
2022/04/14 00:35:03;;;;;;;23.15;5.75;;;3.60;99.90;;;;;;5011300;28;20454;-75
2022/04/14 00:37:32;;;;;;;29.63;5.25;;;3.60;99.90;;;;;;5011435;28;20060;-74
2022/04/14 00:39:59;;;;;;;32.60;5.10;;;3.60;99.90;;;;;;5010533;28;20045;-75
2022/04/14 00:42:27;;;;;;;21.98;5.07;;;3.60;99.90;;;;;;5011079;28;20068;-75
2022/04/14 00:44:54;;;;;;;17.63;4.43;;;3.60;99.90;;;;;;5011157;28;20056;-75
2022/04/14 00:47:23;;;;;;;55.92;8.25;;;3.60;99.90;;;;;;5012035;28;20086;-75
2022/04/14 00:49:51;;;;;;;30.83;6.28;;;3.60;99.90;;;;;;5005120;28;20058;-75
2022/04/14 00:52:23;;;;;;;36.20;6.05;;;3.60;99.90;;;;;;5005862;28;20061;-74
2022/04/14 00:54:52;;;;;;;31.75;6.07;;;3.60;99.90;;;;;;4993500;28;20058;-75
2022/04/14 00:57:20;;;;;;;27.80;7.18;;;3.70;99.90;;;;;;5010254;28;20057;-75
2022/04/14 00:59:47;;;;;;;23.33;4.80;;;3.70;99.90;;;;;;5011081;28;20065;-74
2022/04/14 01:02:15;;;;;;;39.65;5.95;;;3.70;99.90;;;;;;5011062;28;20045;-75
2022/04/14 01:04:43;;;;;;;28.27;6.05;;;3.80;99.90;;;;;;5009725;28;20050;-74
2022/04/14 01:07:10;;;;;;;30.33;5.53;;;3.80;99.90;;;;;;5008111;28;20042;-74
2022/04/14 01:09:39;;;;;;;17.95;5.68;;;3.90;99.90;;;;;;5010923;28;20144;-74
2022/04/14 01:12:11;;;;;;;18.45;5.32;;;3.90;99.90;;;;;;5010817;28;20056;-74
2022/04/14 01:14:39;;;;;;;24.33;5.68;;;3.90;99.90;;;;;;5010559;28;20108;-75
2022/04/14 01:17:09;;;;;;;24.52;4.68;;;3.90;99.90;;;;;;5005537;28;20068;-82
2022/04/14 01:19:38;;;;;;;22.25;5.75;;;3.90;99.90;;;;;;5009409;28;20101;-83
2022/04/14 01:22:12;;;;;;;14.98;4.95;;;3.90;99.90;;;;;;5011752;28;20132;-83
2022/04/14 01:24:42;;;;;;;21.58;5.53;;;3.90;99.90;;;;;;5010375;28;20049;-83
2022/04/14 01:27:09;;;;;;;15.43;4.80;;;3.90;99.90;;;;;;5009805;28;20148;-81
2022/04/14 01:29:37;;;;;;;18.85;5.30;;;3.90;99.90;;;;;;5011109;28;20514;-82
2022/04/14 01:32:07;;;;;;;25.02;5.85;;;3.90;99.90;;;;;;5011286;28;20069;-82
2022/04/14 01:34:34;;;;;;;22.67;5.25;;;3.90;99.90;;;;;;5009320;28;20050;-82
2022/04/14 01:37:02;;;;;;;23.02;5.70;;;3.80;99.90;;;;;;4992075;28;20042;-81
2022/04/14 01:39:30;;;;;;;23.92;6.82;;;3.80;99.90;;;;;;4993448;28;20137;-81
2022/04/14 01:41:59;;;;;;;25.25;5.28;;;3.80;99.90;;;;;;5009812;28;20060;-80
2022/04/14 01:44:26;;;;;;;21.02;5.55;;;3.70;99.90;;;;;;5009332;28;20042;-80
2022/04/14 01:46:54;;;;;;;21.08;5.85;;;3.70;99.90;;;;;;5010025;28;20050;-82
2022/04/14 01:49:21;;;;;;;27.90;5.82;;;3.70;99.90;;;;;;5009583;28;20046;-82
2022/04/14 01:51:49;;;;;;;19.67;6.00;;;3.70;99.90;;;;;;5027043;28;20107;-82
2022/04/14 01:54:17;;;;;;;24.65;6.82;;;3.70;99.90;;;;;;5008844;28;20053;-82
2022/04/14 01:56:45;;;;;;;15.13;4.72;;;3.60;99.90;;;;;;5010932;28;20460;-75
2022/04/14 01:59:14;;;;;;;7.95;3.55;;;3.60;99.90;;;;;;4990514;28;20399;-75
2022/04/14 02:01:42;;;;;;;12.98;3.78;;;3.60;99.90;;;;;;5013572;28;20045;-75
2022/04/14 02:04:10;;;;;;;14.82;3.60;;;3.60;99.90;;;;;;5011273;28;20121;-74
2022/04/14 02:06:37;;;;;;;5.22;2.67;;;3.70;99.90;;;;;;5014603;28;20054;-75
2022/04/14 02:09:05;;;;;;;5.35;2.90;;;3.70;99.90;;;;;;5014113;28;20058;-75
2022/04/14 02:11:33;;;;;;;6.43;2.25;;;3.80;99.90;;;;;;5009828;28;20564;-75
2022/04/14 02:14:01;;;;;;;11.93;3.60;;;3.80;99.90;;;;;;5009132;28;20188;-74
2022/04/14 02:16:30;;;;;;;6.68;2.53;;;3.80;99.90;;;;;;5014253;28;20124;-76
2022/04/14 02:18:57;;;;;;;6.30;2.55;;;3.90;99.90;;;;;;5014255;28;20046;-76
2022/04/14 02:21:24;;;;;;;6.35;2.42;;;3.90;99.90;;;;;;5012481;28;20042;-76
2022/04/14 02:23:52;;;;;;;6.85;2.58;;;3.90;99.90;;;;;;5014224;28;20057;-76
2022/04/14 02:26:19;;;;;;;4.22;1.95;;;3.90;99.90;;;;;;5013845;28;20488;-76
2022/04/14 02:28:47;;;;;;;4.85;2.58;;;3.90;99.90;;;;;;5012692;28;20477;-77
2022/04/14 02:31:14;;;;;;;7.43;2.47;;;3.90;99.90;;;;;;4991964;28;20061;-76
2022/04/14 02:33:43;;;;;;;8.05;2.83;;;3.80;99.90;;;;;;5013323;28;20201;-76
2022/04/14 02:36:10;;;;;;;7.13;2.70;;;3.80;99.90;;;;;;5013186;28;20157;-76
2022/04/14 02:38:38;;;;;;;12.23;2.72;;;3.80;99.90;;;;;;5012532;28;20068;-75
2022/04/14 02:41:05;;;;;;;9.55;2.75;;;3.70;99.90;;;;;;4994854;28;20520;-75
2022/04/14 02:43:33;;;;;;;8.93;3.10;;;3.70;99.90;;;;;;5012141;28;20519;-75
2022/04/14 02:46:00;;;;;;;9.65;4.13;;;3.70;99.90;;;;;;4996247;28;20049;-76
2022/04/14 02:48:28;;;;;;;7.57;3.53;;;3.60;99.90;;;;;;4991835;28;20084;-75
2022/04/14 02:50:56;;;;;;;5.28;3.55;;;3.60;99.90;;;;;;4998383;28;20089;-77
2022/04/14 02:53:24;;;;;;;6.35;3.47;;;3.60;99.90;;;;;;5013331;28;20081;-75
2022/04/14 02:55:52;;;;;;;11.02;4.20;;;3.50;99.90;;;;;;5013334;28;20073;-75
2022/04/14 02:58:20;;;;;;;15.93;4.82;;;3.50;99.90;;;;;;5012846;28;20528;-74
2022/04/14 03:00:48;;;;;;;10.88;5.65;;;3.40;99.90;;;;;;5008891;28;20132;-76
2022/04/14 03:03:15;;;;;;;26.38;9.15;;;3.40;99.90;;;;;;5009153;28;20077;-76
2022/04/14 03:05:43;;;;;;;23.80;8.38;;;3.40;99.90;;;;;;5012165;28;20096;-75
2022/04/14 03:08:12;;;;;;;19.60;8.20;;;3.30;99.90;;;;;;5012372;28;20054;-76
2022/04/14 03:10:40;;;;;;;25.23;7.68;;;3.30;99.90;;;;;;5013068;28;20468;-76
2022/04/14 03:13:10;;;;;;;22.48;6.85;;;3.30;99.90;;;;;;5008438;28;20556;-76
2022/04/14 03:15:37;;;;;;;20.60;7.55;;;3.30;99.90;;;;;;5027164;28;20049;-76
2022/04/14 03:18:05;;;;;;;22.80;8.10;;;3.30;99.90;;;;;;5020844;28;20133;-76
2022/04/14 03:20:33;;;;;;;28.42;7.80;;;3.30;99.90;;;;;;4983074;28;20573;-76
2022/04/14 03:23:01;;;;;;;17.58;7.13;;;3.30;99.90;;;;;;5008824;28;20062;-75
2022/04/14 03:25:30;;;;;;;20.17;7.85;;;3.40;99.90;;;;;;5012047;28;20108;-76
2022/04/14 03:27:57;;;;;;;26.15;7.82;;;3.40;99.90;;;;;;5013003;28;20401;-76
2022/04/14 03:30:25;;;;;;;22.50;7.05;;;3.40;99.90;;;;;;5007959;28;20137;-76
2022/04/14 03:32:52;;;;;;;15.15;5.45;;;3.40;99.90;;;;;;5010139;28;20470;-76
2022/04/14 03:35:20;;;;;;;13.70;5.03;;;3.40;99.90;;;;;;5021900;28;20045;-76
2022/04/14 03:37:47;;;;;;;16.70;5.15;;;3.50;99.90;;;;;;5012899;28;20081;-76
2022/04/14 03:40:15;;;;;;;14.52;5.15;;;3.50;99.90;;;;;;5011177;28;20096;-77
2022/04/14 03:42:43;;;;;;;18.20;5.57;;;3.50;99.90;;;;;;5010595;28;20037;-77
2022/04/14 03:45:11;;;;;;;21.55;6.63;;;3.60;99.90;;;;;;5011767;28;20675;-77
2022/04/14 03:47:38;;;;;;;40.47;6.30;;;3.60;99.90;;;;;;5012699;28;20148;-77
2022/04/14 03:50:07;;;;;;;20.38;6.53;;;3.60;99.90;;;;;;5011877;28;20488;-78
2022/04/14 03:52:35;;;;;;;15.18;5.47;;;3.70;99.90;;;;;;4990118;28;20061;-77
2022/04/14 03:55:02;;;;;;;19.95;7.15;;;3.70;99.90;;;;;;4991935;28;20109;-78
2022/04/14 03:57:30;;;;;;;17.55;5.13;;;3.80;99.90;;;;;;5000075;28;20513;-77
2022/04/14 03:59:59;;;;;;;18.90;5.70;;;3.80;99.90;;;;;;4993679;28;20131;-76
2022/04/14 04:02:26;;;;;;;17.45;5.47;;;3.80;99.90;;;;;;5005698;28;20038;-76
2022/04/14 04:04:54;;;;;;;16.13;4.00;;;3.90;99.90;;;;;;4992411;28;20046;-78
2022/04/14 04:07:21;;;;;;;16.83;6.43;;;3.90;99.90;;;;;;5012907;28;20045;-78
2022/04/14 04:09:49;;;;;;;18.92;6.65;;;4.00;99.90;;;;;;5000781;28;20176;-77
2022/04/14 04:12:19;;;;;;;18.30;5.38;;;4.10;99.90;;;;;;5008081;28;20054;-77
2022/04/14 04:14:48;;;;;;;12.13;4.05;;;4.10;99.90;;;;;;5010942;28;20457;-79
2022/04/14 04:17:17;;;;;;;11.15;3.72;;;4.20;99.90;;;;;;5007537;28;20471;-76
2022/04/14 04:19:45;;;;;;;22.15;4.03;;;4.30;99.90;;;;;;5001823;28;20060;-76
2022/04/14 04:22:13;;;;;;;22.10;3.80;;;4.40;99.90;;;;;;5011895;28;20056;-78
2022/04/14 04:24:43;;;;;;;16.00;4.70;;;4.50;99.90;;;;;;5008156;28;20049;-78
2022/04/14 04:27:11;;;;;;;13.23;2.88;;;4.50;99.90;;;;;;5009052;28;20042;-76
2022/04/14 04:29:38;;;;;;;15.82;3.70;;;4.50;99.90;;;;;;5010775;28;20501;-77
2022/04/14 04:32:08;;;;;;;9.20;3.08;;;4.50;99.90;;;;;;5010858;28;20500;-76
2022/04/14 04:34:37;;;;;;;15.90;4.05;;;4.50;99.90;;;;;;5023715;28;20097;-76
2022/04/14 04:37:05;;;;;;;11.20;3.05;;;4.50;99.90;;;;;;4995433;28;20432;-77
2022/04/14 04:39:33;;;;;;;13.77;3.30;;;4.50;99.90;;;;;;5011453;28;20050;-77
2022/04/14 04:42:00;;;;;;;8.18;2.80;;;4.40;99.90;;;;;;5010152;28;20165;-77
2022/04/14 04:44:28;;;;;;;9.18;3.15;;;4.40;99.90;;;;;;5009958;28;20485;-78
2022/04/14 04:46:55;;;;;;;11.65;2.72;;;4.40;99.90;;;;;;5010825;28;20054;-79
2022/04/14 04:49:23;;;;;;;9.20;2.70;;;4.40;99.90;;;;;;5011721;28;20057;-79
2022/04/14 04:51:51;;;;;;;15.18;2.67;;;4.40;99.90;;;;;;5010881;28;20081;-80
2022/04/14 04:54:19;;;;;;;7.97;2.55;;;4.50;99.90;;;;;;5011741;28;20520;-81
2022/04/14 04:56:46;;;;;;;13.93;3.08;;;4.50;99.90;;;;;;5009626;28;20045;-82
2022/04/14 04:59:14;;;;;;;10.52;2.47;;;4.60;99.90;;;;;;5011156;28;20045;-79
2022/04/14 05:01:41;;;;;;;14.18;4.40;;;4.60;99.90;;;;;;5009821;28;20041;-78
2022/04/14 05:04:11;;;;;;;13.10;2.92;;;4.70;99.90;;;;;;5009921;28;20053;-80
2022/04/14 05:06:38;;;;;;;9.20;2.42;;;4.80;99.90;;;;;;5010157;28;20046;-77
2022/04/14 05:09:07;;;;;;;8.13;4.13;;;4.80;99.90;;;;;;5011217;28;20387;-79
2022/04/14 05:11:35;;;;;;;9.80;2.67;;;4.90;99.90;;;;;;5011132;28;20136;-80
2022/04/14 05:14:03;;;;;;;17.20;3.17;;;4.90;99.90;;;;;;5009443;28;20372;-79
2022/04/14 05:16:31;;;;;;;7.05;2.13;;;5.00;99.90;;;;;;4992591;28;20056;-78
2022/04/14 05:18:58;;;;;;;14.35;4.25;;;5.10;99.90;;;;;;5009050;28;20493;-78
2022/04/14 05:21:26;;;;;;;5.28;2.08;;;5.20;99.90;;;;;;5008750;28;20054;-77
2022/04/14 05:23:53;;;;;;;12.43;3.33;;;5.20;99.90;;;;;;5006645;28;20045;-77
2022/04/14 05:26:22;;;;;;;13.02;4.00;;;5.40;99.90;;;;;;5007514;28;20096;-78
2022/04/14 05:28:49;;;;;;;11.15;3.58;;;5.60;99.90;;;;;;5008463;28;20053;-78
2022/04/14 05:31:17;;;;;;;10.60;2.63;;;5.80;99.90;;;;;;5008817;28;20042;-78
2022/04/14 05:33:44;;;;;;;6.80;2.70;;;6.00;99.90;;;;;;5011092;28;20084;-78
2022/04/14 05:36:12;;;;;;;14.65;3.22;;;6.50;99.90;;;;;;5009907;28;20120;-78
2022/04/14 05:38:40;;;;;;;19.08;2.83;;;6.90;99.90;;;;;;5007012;28;20539;-77
2022/04/14 05:41:11;;;;;;;16.80;2.53;;;7.10;99.90;;;;;;5003553;28;20104;-78
2022/04/14 05:43:39;;;;;;;21.65;3.22;;;7.10;99.90;;;;;;5008528;28;20413;-78
2022/04/14 05:46:07;;;;;;;17.85;2.50;;;7.10;99.90;;;;;;5009178;28;20140;-78
2022/04/14 05:48:34;;;;;;;14.98;2.90;;;7.30;99.90;;;;;;5010375;28;20056;-81
2022/04/14 05:51:02;;;;;;;11.18;2.13;;;7.70;99.90;;;;;;5004635;28;20042;-78
2022/04/14 05:53:30;;;;;;;11.18;2.70;;;8.30;99.90;;;;;;4995878;28;20571;-80
2022/04/14 05:55:58;;;;;;;19.80;3.28;;;8.70;99.90;;;;;;5010508;28;20093;-80
2022/04/14 05:58:25;;;;;;;25.73;3.28;;;9.00;99.90;;;;;;5007391;28;20104;-81
2022/04/14 06:00:54;;;;;;;11.57;2.45;;;9.10;99.90;;;;;;5004800;28;20137;-80
2022/04/14 06:03:26;;;;;;;9.30;2.45;;;9.10;99.90;;;;;;5007124;28;20137;-80
2022/04/14 06:05:53;;;;;;;13.13;2.28;;;9.10;99.90;;;;;;5022370;28;20521;-80
2022/04/14 06:08:21;;;;;;;11.75;2.42;;;9.40;99.90;;;;;;5008427;28;20132;-79
2022/04/14 06:10:49;;;;;;;10.30;2.47;;;9.70;98.90;;;;;;4991472;28;20425;-78
2022/04/14 06:13:17;;;;;;;8.85;2.20;;;10.10;97.90;;;;;;5008786;28;20085;-79
2022/04/14 06:15:46;;;;;;;4.95;2.03;;;10.80;94.10;;;;;;5006097;28;20042;-79
2022/04/14 06:18:18;;;;;;;13.95;2.35;;;11.10;90.50;;;;;;5002028;28;20137;-78
2022/04/14 06:20:47;;;;;;;8.23;2.05;;;11.50;86.80;;;;;;5007394;28;20042;-78
2022/04/14 06:23:16;;;;;;;8.38;2.60;;;11.80;81.80;;;;;;5004537;28;20050;-78
2022/04/14 06:25:45;;;;;;;10.07;2.30;;;12.10;78.80;;;;;;5006162;28;20084;-78
2022/04/14 06:28:12;;;;;;;9.85;2.00;;;12.50;77.30;;;;;;5007321;28;20056;-78
2022/04/14 06:30:42;;;;;;;16.65;2.40;;;12.60;74.00;;;;;;5006232;28;20410;-77
2022/04/14 06:33:09;;;;;;;11.88;2.80;;;12.80;73.40;;;;;;5004682;28;20064;-78
2022/04/14 06:35:38;;;;;;;10.38;2.40;;;12.80;72.60;;;;;;5008489;28;20128;-78
2022/04/14 06:38:06;;;;;;;10.38;2.25;;;12.70;71.40;;;;;;5002693;28;20050;-80
2022/04/14 06:40:34;;;;;;;12.32;2.53;;;12.60;71.10;;;;;;5003337;28;20046;-79
2022/04/14 06:43:02;;;;;;;15.38;2.72;;;12.40;70.70;;;;;;5006901;28;20121;-79
2022/04/14 06:45:30;;;;;;;4.85;2.13;;;12.10;70.80;;;;;;5009331;28;20054;-78
2022/04/14 06:48:00;;;;;;;14.40;2.72;;;12.10;71.60;;;;;;5027083;28;20050;-78
2022/04/14 06:50:29;;;;;;;15.90;1.85;;;12.30;71.00;;;;;;5007560;28;20069;-78
2022/04/14 06:52:58;;;;;;;11.05;2.10;;;12.50;69.90;;;;;;5022049;28;20383;-79
2022/04/14 06:55:25;;;;;;;10.25;2.03;;;12.80;68.70;;;;;;5015411;28;20518;-78
2022/04/14 06:57:53;;;;;;;10.80;2.55;;;13.10;67.50;;;;;;5007475;28;20046;-79
2022/04/14 07:00:21;;;;;;;10.38;2.20;;;13.40;66.00;;;;;;5023598;28;20132;-82
2022/04/14 07:02:50;;;;;;;14.73;2.72;;;13.20;64.40;;;;;;5011952;28;20053;-80
2022/04/14 07:05:18;;;;;;;14.05;3.00;;;13.10;65.10;;;;;;5027631;28;20528;-84
2022/04/14 07:07:48;;;;;;;14.05;2.10;;;12.70;65.70;;;;;;5013333;28;20054;-85
2022/04/14 07:10:17;;;;;;;22.52;2.85;;;12.30;66.30;;;;;;5011782;28;20045;-88
2022/04/14 07:12:46;;;;;;;11.80;2.67;;;11.90;67.60;;;;;;5010506;28;20413;-88
2022/04/14 07:15:14;;;;;;;8.30;2.20;;;11.70;68.30;;;;;;5011087;28;20054;-84
2022/04/14 07:17:43;;;;;;;14.18;2.10;;;11.50;69.10;;;;;;5012877;28;20454;-84
2022/04/14 07:20:11;;;;;;;10.57;2.35;;;11.50;69.90;;;;;;5010578;28;20433;-84
2022/04/14 07:22:43;;;;;;;10.40;2.60;;;11.60;68.50;;;;;;4991533;28;20531;-85
2022/04/14 07:25:11;;;;;;;9.18;2.17;;;11.30;68.60;;;;;;4999624;28;20332;-83
2022/04/14 07:27:41;;;;;;;14.35;2.60;;;10.90;70.00;;;;;;5011612;28;20057;-84
2022/04/14 07:30:09;;;;;;;8.07;3.25;;;10.60;71.60;;;;;;5001040;28;20046;-83
2022/04/14 07:32:38;;;;;;;9.45;2.97;;;10.50;72.30;;;;;;4989402;28;20057;-84
2022/04/14 07:35:07;;;;;;;11.05;2.25;;;10.60;72.80;;;;;;4990320;28;20046;-83
2022/04/14 07:37:36;;;;;;;10.77;2.58;;;10.90;73.00;;;;;;4990800;28;20073;-83
2022/04/14 07:40:05;;;;;;;12.75;3.03;;;11.10;72.00;;;;;;4990829;28;20046;-82
2022/04/14 07:42:33;;;;;;;17.38;2.90;;;11.10;72.80;;;;;;4993834;28;20145;-86
2022/04/14 07:45:03;;;;;;;11.55;2.83;;;11.00;72.20;;;;;;5012394;28;20410;-84
2022/04/14 07:47:30;;;;;;;11.93;2.95;;;10.90;72.60;;;;;;5011700;28;20076;-81
2022/04/14 07:49:58;;;;;;;9.07;3.13;;;10.80;74.70;;;;;;5012212;28;20056;-81
2022/04/14 07:52:25;;;;;;;19.20;3.78;;;10.80;75.10;;;;;;5010922;28;20234;-81
2022/04/14 07:54:53;;;;;;;24.33;4.03;;;11.00;75.90;;;;;;5012365;28;20041;-81
2022/04/14 07:57:20;;;;;;;15.98;3.25;;;11.50;75.60;;;;;;4960866;28;20077;-80
2022/04/14 07:59:49;;;;;;;16.38;3.60;;;11.80;72.70;;;;;;5011485;28;20552;-80
2022/04/14 08:02:19;;;;;;;11.32;3.60;;;11.90;71.40;;;;;;5011973;28;20088;-82
2022/04/14 08:04:47;;;;;;;19.75;4.53;;;11.80;71.30;;;;;;5011777;28;20095;-82
2022/04/14 08:07:14;;;;;;;21.30;3.90;;;11.90;71.50;;;;;;4996821;28;20054;-81
2022/04/14 08:09:42;;;;;;;21.83;4.05;;;12.00;70.70;;;;;;4992729;28;20568;-82
2022/04/14 08:12:14;;;;;;;25.80;3.55;;;12.10;70.70;;;;;;5007884;28;20441;-81
2022/04/14 08:14:41;;;;;;;12.60;3.83;;;12.30;71.20;;;;;;4993200;28;20526;-82
2022/04/14 08:17:08;;;;;;;20.13;3.95;;;12.40;68.60;;;;;;5012775;28;20311;-82
2022/04/14 08:19:40;;;;;;;21.55;3.63;;;12.20;68.60;;;;;;5012227;28;20058;-83
2022/04/14 08:22:13;;;;;;;21.33;3.80;;;12.20;68.10;;;;;;5011074;28;20061;-81
2022/04/14 08:24:41;;;;;;;13.70;3.20;;;12.30;67.80;;;;;;5011093;28;20057;-81
2022/04/14 08:27:09;;;;;;;12.07;3.05;;;12.30;68.10;;;;;;4994272;28;20497;-80
2022/04/14 08:29:36;;;;;;;19.02;3.22;;;12.40;66.80;;;;;;5011499;28;20096;-78
2022/04/14 08:32:06;;;;;;;16.58;3.63;;;12.30;67.30;;;;;;5011837;28;20063;-78
2022/04/14 08:34:34;;;;;;;26.60;4.00;;;13.20;67.60;;;;;;5010720;28;20050;-79
2022/04/14 08:37:03;;;;;;;14.00;3.53;;;14.30;62.90;;;;;;5008793;28;20054;-77
2022/04/14 08:39:31;;;;;;;25.27;4.97;;;14.80;59.60;;;;;;5008312;28;20418;-78
2022/04/14 08:42:12;;;;;;;19.02;3.80;;;15.10;58.00;;;;;;5011157;28;20054;-78
2022/04/14 08:44:47;;;;;;;20.40;3.50;;;15.00;57.50;;;;;;5009416;28;20064;-78
2022/04/14 08:47:17;;;;;;;18.85;3.97;;;14.50;58.00;;;;;;5011703;28;20100;-78
2022/04/14 08:49:46;;;;;;;12.52;2.85;;;14.30;58.40;;;;;;5010798;28;20510;-80
2022/04/14 08:52:15;;;;;;;19.92;2.63;;;14.00;58.40;;;;;;5026174;28;20402;-78
2022/04/14 08:54:45;;;;;;;12.88;3.42;;;13.60;58.80;;;;;;5011070;28;20053;-78
2022/04/14 08:57:14;;;;;;;7.80;2.33;;;13.50;59.40;;;;;;5006854;28;20038;-78
2022/04/14 08:59:44;;;;;;;17.00;3.33;;;13.50;59.30;;;;;;5009724;28;20581;-78
2022/04/14 09:02:15;;;;;;;14.75;2.92;;;13.70;59.10;;;;;;5011138;28;20556;-77
2022/04/14 09:04:43;;;;;;;7.90;2.47;;;14.10;58.10;;;;;;5010585;28;20128;-76
2022/04/14 09:07:12;;;;;;;14.50;3.10;;;14.50;56.20;;;;;;5009182;28;20058;-77
2022/04/14 09:09:41;;;;;;;16.60;2.67;;;14.30;56.50;;;;;;5010068;28;20141;-79
2022/04/14 09:12:10;;;;;;;6.72;2.60;;;14.30;56.40;;;;;;5010885;28;20091;-77
2022/04/14 09:14:38;;;;;;;10.20;2.25;;;14.20;56.00;;;;;;5010301;28;20526;-79
2022/04/14 09:17:06;;;;;;;14.25;2.95;;;13.90;56.40;;;;;;5010637;28;20072;-76
2022/04/14 09:19:35;;;;;;;9.65;2.10;;;13.60;57.00;;;;;;5010713;28;20135;-80
2022/04/14 09:22:07;;;;;;;13.43;2.60;;;13.50;57.00;;;;;;5009611;28;20060;-85
2022/04/14 09:24:44;;;;;;;9.40;2.30;;;13.40;56.90;;;;;;5010743;28;20075;-86
2022/04/14 09:27:26;;;;;;;8.45;1.92;;;13.40;56.60;;;;;;5011056;28;20064;-85
2022/04/14 09:29:57;;;;;;;12.18;1.92;;;13.40;56.00;;;;;;5010939;28;20053;-85
2022/04/14 09:32:33;;;;;;;9.50;2.78;;;13.40;56.50;;;;;;5010004;28;20049;-87
2022/04/14 09:35:03;;;;;;;7.78;2.13;;;13.40;56.80;;;;;;5024305;28;20521;-85
2022/04/14 09:37:32;;;;;;;12.35;2.70;;;13.40;56.80;;;;;;5008946;28;20058;-85
2022/04/14 09:40:05;;;;;;;15.57;2.20;;;13.40;57.20;;;;;;5011112;28;20484;-87
2022/04/14 09:42:35;;;;;;;7.35;2.05;;;13.50;56.80;;;;;;5010674;28;20041;-83
2022/04/14 09:45:20;;;;;;;15.93;2.15;;;13.70;56.00;;;;;;5011043;28;20049;-83
2022/04/14 09:47:49;;;;;;;7.57;2.42;;;14.10;55.60;;;;;;5009782;28;20046;-85
2022/04/14 09:50:26;;;;;;;13.52;2.50;;;14.10;55.40;;;;;;5010225;28;20050;-90
2022/04/14 09:53:00;;;;;;;21.40;8.43;;;14.10;56.00;;;;;;5011188;28;20544;-88
2022/04/14 09:55:29;;;;;;;17.60;5.25;;;14.10;55.60;;;;;;5009831;28;20048;-88
2022/04/14 09:58:09;;;;;;;17.60;3.88;;;14.00;55.70;;;;;;5009896;28;20465;-85
2022/04/14 10:00:39;;;;;;;10.63;2.65;;;13.90;56.00;;;;;;5011797;28;20045;-87
2022/04/14 10:03:16;;;;;;;9.80;1.85;;;13.80;55.70;;;;;;5033109;28;20521;-85
2022/04/14 10:05:44;;;;;;;16.52;3.30;;;13.80;55.50;;;;;;5030535;28;20513;-84
2022/04/14 10:08:13;;;;;;;3.97;1.52;;;13.80;55.90;;;;;;5012202;28;20064;-85
2022/04/14 10:10:44;;;;;;;10.70;1.88;;;14.10;55.20;;;;;;5029693;28;20042;-86
2022/04/14 10:13:13;;;;;;;9.35;1.48;;;14.20;54.20;;;;;;5033698;28;20085;-89
2022/04/14 10:15:43;;;;;;;9.90;1.58;;;14.10;53.70;;;;;;5017829;28;20052;-88
2022/04/14 10:18:12;;;;;;;8.63;1.70;;;13.80;54.10;;;;;;5005316;28;20124;-87
2022/04/14 10:20:47;;;;;;;6.20;1.02;;;13.70;53.50;;;;;;5011762;28;20042;-86
2022/04/14 10:23:16;;;;;;;12.20;1.40;;;13.50;53.60;;;;;;5009390;28;20046;-86
2022/04/14 10:25:45;;;;;;;8.90;2.38;;;13.40;54.90;;;;;;4977491;28;20061;-83
2022/04/14 10:28:17;;;;;;;4.82;1.45;;;13.50;54.40;;;;;;4995436;28;20065;-87
2022/04/14 10:30:52;;;;;;;7.40;1.00;;;13.60;53.90;;;;;;4996450;28;20058;-86
2022/04/14 10:33:20;;;;;;;8.30;1.08;;;13.80;53.10;;;;;;5013291;28;20080;-85
2022/04/14 10:35:48;;;;;;;5.93;1.48;;;14.10;53.30;;;;;;5013463;28;20136;-85
2022/04/14 10:38:21;;;;;;;5.25;1.30;;;14.50;52.60;;;;;;5012304;28;20049;-83
2022/04/14 10:40:55;;;;;;;3.72;1.30;;;14.60;52.60;;;;;;5014131;28;20050;-83
2022/04/14 10:43:25;;;;;;;6.00;1.10;;;14.50;51.30;;;;;;5013568;28;20076;-85
2022/04/14 10:45:55;;;;;;;6.15;1.20;;;14.50;51.30;;;;;;5012640;28;20052;-84
2022/04/14 10:48:31;;;;;;;11.05;2.05;;;14.40;51.30;;;;;;5014478;28;20529;-89
2022/04/14 10:51:27;;;;;;;3.40;1.20;;;14.40;51.80;;;;;;5011626;28;20045;-87
2022/04/14 10:54:00;;;;;;;2.60;0.85;;;14.60;51.10;;;;;;5014022;28;20148;-83
2022/04/14 10:56:50;;;;;;;;;;;14.80;51.30;;;;;;4992677;28;20149;-88
2022/04/14 10:59:21;;;;;;;3.78;1.65;;;14.60;51.00;;;;;;5016427;28;19929;-87
2022/04/14 11:02:02;;;;;;;6.65;1.73;;;14.50;50.00;;;;;;5034520;28;20057;-86
2022/04/14 11:04:34;;;;;;;6.07;1.40;;;14.10;50.90;;;;;;5033428;28;20060;-86
2022/04/14 11:07:09;;;;;;;12.32;2.30;;;13.80;51.50;;;;;;5014293;28;20049;-90
2022/04/14 11:09:58;;;;;;;8.70;1.80;;;13.60;52.10;;;;;;5013868;28;20085;-89
2022/04/14 11:12:32;;;;;;;9.32;2.03;;;13.30;53.00;;;;;;5028681;28;20149;-85
2022/04/14 11:15:01;;;;;;;7.65;1.70;;;13.30;53.30;;;;;;4993516;28;20417;-86
2022/04/14 11:17:53;;;;;;;4.57;1.80;;;13.50;53.40;;;;;;5012214;28;20049;-85
2022/04/14 11:20:23;;;;;;;8.45;1.67;;;14.00;53.10;;;;;;5004928;28;20522;-85
2022/04/14 11:23:05;;;;;;;12.50;2.17;;;14.40;52.70;;;;;;5011103;28;20148;-86
2022/04/14 11:25:50;;;;;;;6.80;1.30;;;14.80;51.80;;;;;;5008225;28;20486;-85
2022/04/14 11:28:25;;;;;;;3.80;1.40;;;14.80;51.50;;;;;;5002986;28;20054;-87
2022/04/14 11:30:55;;;;;;;7.00;1.40;;;14.40;50.40;;;;;;5011699;28;20159;-88
2022/04/14 11:33:35;;;;;;;6.75;1.35;;;13.90;51.30;;;;;;5012099;28;20136;-87
2022/04/14 11:36:11;;;;;;;6.00;1.70;;;13.50;51.70;;;;;;5012180;28;20481;-88
2022/04/14 11:39:05;;;;;;;14.50;1.67;;;13.30;52.50;;;;;;5005287;28;20046;-88
2022/04/14 11:41:37;;;;;;;8.20;1.50;;;13.30;52.90;;;;;;4993003;28;20057;-83
2022/04/14 11:44:09;;;;;;;6.68;1.50;;;13.20;53.00;;;;;;5011476;28;21497;-83
2022/04/14 11:46:39;;;;;;;4.00;1.33;;;13.20;52.60;;;;;;5007612;28;20494;-84
2022/04/14 11:49:09;;;;;;;11.23;1.80;;;13.10;52.40;;;;;;4996632;28;20453;-81
2022/04/14 11:51:43;;;;;;;11.32;2.22;;;12.90;53.10;;;;;;5006942;28;20075;-83
2022/04/14 11:54:11;;;;;;;5.65;1.30;;;12.80;52.70;;;;;;5002274;28;20046;-84
2022/04/14 11:56:39;;;;;;;7.43;1.20;;;12.80;52.80;;;;;;5010013;28;20381;-81
2022/04/14 11:59:09;;;;;;;9.30;1.52;;;12.70;53.00;;;;;;5011761;28;20052;-83
2022/04/14 12:01:50;;;;;;;6.90;1.60;;;12.50;53.40;;;;;;5012200;28;20050;-84
2022/04/14 12:04:17;;;;;;;14.77;2.13;;;12.40;53.80;;;;;;5000748;28;20065;-84
2022/04/14 12:06:56;;;;;;;16.85;2.42;;;12.30;53.90;;;;;;4992631;28;20048;-85
2022/04/14 12:09:25;;;;;;;11.48;1.60;;;12.20;55.20;;;;;;4998121;28;20054;-83
2022/04/14 12:11:53;;;;;;;9.10;1.60;;;12.10;53.80;;;;;;5008947;28;20081;-82
2022/04/14 12:14:23;;;;;;;3.67;1.40;;;12.00;53.50;;;;;;5006206;28;20089;-86
2022/04/14 12:16:52;;;;;;;5.18;1.05;;;12.00;53.00;;;;;;5007206;28;20068;-83
2022/04/14 12:19:41;;;;;;;8.90;1.10;;;11.90;52.90;;;;;;5010777;28;20479;-84
2022/04/14 12:22:08;;;;;;;11.10;1.30;;;11.80;53.10;;;;;;5012861;28;20049;-79
2022/04/14 12:24:36;;;;;;;7.03;1.08;;;11.80;53.20;;;;;;5011360;28;20081;-82
2022/04/14 12:27:04;;;;;;;11.05;2.22;;;11.80;53.30;;;;;;5003638;28;20100;-80
2022/04/14 12:29:33;;;;;;;8.10;1.20;;;11.80;53.60;;;;;;5005703;28;20047;-81
2022/04/14 12:32:11;;;;;;;6.95;1.23;;;11.80;52.80;;;;;;5003561;28;20302;-76
2022/04/14 12:34:42;;;;;;;5.40;1.42;;;11.80;53.20;;;;;;5009385;28;20464;-77
2022/04/14 12:37:14;;;;;;;4.28;1.52;;;11.80;54.30;;;;;;5010101;28;20104;-78
2022/04/14 12:39:59;;;;;;;8.98;1.80;;;11.90;53.90;;;;;;5010116;28;20498;-75
2022/04/14 12:42:31;;;;;;;11.90;2.10;;;11.80;53.60;;;;;;5002830;28;20542;-77
2022/04/14 12:45:10;;;;;;;14.20;1.83;;;11.80;54.00;;;;;;5010264;28;20533;-77
2022/04/14 12:47:41;;;;;;;7.10;1.52;;;11.70;54.10;;;;;;5009524;28;20418;-77
2022/04/14 12:50:09;;;;;;;7.18;1.35;;;11.60;54.00;;;;;;5005707;28;20116;-80
2022/04/14 12:52:37;;;;;;;5.32;1.02;;;11.50;54.90;;;;;;5008777;28;20069;-78
2022/04/14 12:55:06;;;;;;;10.07;2.28;;;11.50;53.60;;;;;;4989689;28;20439;-80
2022/04/14 12:57:35;;;;;;;12.48;2.58;;;11.30;53.90;;;;;;4991433;28;20050;-78